createdAt,value
2018-07-29T00:03:04.703Z,101015.49
2018-07-29T00:05:33.065Z,101013.91
2018-07-29T00:08:01.837Z,101010.09
2018-07-29T00:10:30.265Z,101016.03
2018-07-29T00:12:58.565Z,101009.70
2018-07-29T00:15:27.041Z,101012.59
2018-07-29T00:17:55.825Z,101014.27
2018-07-29T00:20:24.601Z,101023.45
2018-07-29T00:22:52.729Z,101021.20
2018-07-29T00:25:21.161Z,101027.63
2018-07-29T00:27:49.709Z,101025.38
2018-07-29T00:30:18.164Z,101023.48
2018-07-29T00:32:46.689Z,101027.75
2018-07-29T00:35:14.809Z,101028.58
2018-07-29T00:37:42.936Z,101032.44
2018-07-29T00:40:11.381Z,101036.11
2018-07-29T00:42:39.902Z,101024.84
2018-07-29T00:45:08.896Z,101023.07
2018-07-29T00:47:37.652Z,101027.16
2018-07-29T00:50:18.501Z,101021.17
2018-07-29T00:52:46.984Z,101026.41
2018-07-29T00:55:15.937Z,101026.25
2018-07-29T00:57:44.889Z,101022.26
2018-07-29T01:00:13.880Z,101021.84
2018-07-29T01:02:42.814Z,101020.95
2018-07-29T01:05:12.096Z,101021.64
2018-07-29T01:07:40.759Z,101017.91
2018-07-29T01:10:17.117Z,101019.65
2018-07-29T01:12:45.780Z,101019.00
2018-07-29T01:15:14.262Z,101023.73
2018-07-29T01:17:42.717Z,101022.54
2018-07-29T01:20:11.439Z,101021.17
2018-07-29T01:22:39.644Z,101027.11
2018-07-29T01:25:08.145Z,101031.55
2018-07-29T01:27:36.839Z,101030.35
2018-07-29T01:30:06.258Z,101032.42
2018-07-29T01:32:34.608Z,101032.55
2018-07-29T01:35:03.340Z,101026.08
2018-07-29T01:37:31.938Z,101034.09
2018-07-29T01:40:00.149Z,101036.64
2018-07-29T01:42:28.988Z,101029.83
2018-07-29T01:44:57.785Z,101031.84
2018-07-29T01:47:25.909Z,101031.11
2018-07-29T01:49:55.097Z,101024.73
2018-07-29T01:52:23.557Z,101030.84
2018-07-29T01:54:51.828Z,101025.69
2018-07-29T01:57:20.525Z,101024.66
2018-07-29T01:59:48.939Z,101025.95
2018-07-29T02:02:17.302Z,101027.09
2018-07-29T02:04:47.233Z,101021.95
2018-07-29T02:07:16.333Z,101016.98
2018-07-29T02:09:45.210Z,101025.67
2018-07-29T02:12:13.895Z,101023.05
2018-07-29T02:14:42.377Z,101015.41
2018-07-29T02:17:11.281Z,101009.44
2018-07-29T02:19:40.026Z,101001.98
2018-07-29T02:22:08.164Z,101008.27
2018-07-29T02:24:37.146Z,101014.05
2018-07-29T02:27:05.644Z,101008.86
2018-07-29T02:29:34.113Z,101015.77
2018-07-29T02:32:03.186Z,101016.22
2018-07-29T02:34:31.936Z,101019.58
2018-07-29T02:37:00.696Z,101023.28
2018-07-29T02:39:28.833Z,101021.45
2018-07-29T02:41:56.989Z,101023.87
2018-07-29T02:44:25.389Z,101025.57
2018-07-29T02:46:53.821Z,101012.11
2018-07-29T02:49:22.386Z,101017.63
2018-07-29T02:51:51.041Z,101021.22
2018-07-29T02:54:19.508Z,101016.70
2018-07-29T02:56:49.612Z,101015.03
2018-07-29T02:59:18.141Z,101008.11
2018-07-29T03:01:47.061Z,101017.30
2018-07-29T03:04:15.575Z,101019.94
2018-07-29T03:06:44.398Z,101023.41
2018-07-29T03:09:12.681Z,101024.32
2018-07-29T03:11:41.157Z,101021.41
2018-07-29T03:14:10.009Z,101021.69
2018-07-29T03:16:38.477Z,101020.33
2018-07-29T03:19:07.240Z,101020.48
2018-07-29T03:21:36.036Z,101023.85
2018-07-29T03:24:04.909Z,101018.77
2018-07-29T03:26:33.388Z,101023.49
2018-07-29T03:29:02.077Z,101018.02
2018-07-29T03:31:30.684Z,101022.54
2018-07-29T03:33:59.551Z,101021.83
2018-07-29T03:36:28.162Z,101011.55
2018-07-29T03:38:56.625Z,101014.52
2018-07-29T03:41:24.893Z,101010.91
2018-07-29T03:43:53.558Z,101007.84
2018-07-29T03:46:22.266Z,101007.35
2018-07-29T03:48:50.449Z,101012.35
2018-07-29T03:51:19.257Z,101004.56
2018-07-29T03:58:47.699Z,101016.78
2018-07-29T04:01:16.313Z,101018.34
2018-07-29T04:03:44.677Z,101013.70
2018-07-29T04:06:12.857Z,101014.70
2018-07-29T04:08:40.993Z,101024.22
2018-07-29T04:11:09.464Z,101023.34
2018-07-29T04:13:38.163Z,101022.50
2018-07-29T04:16:12.392Z,101031.80
2018-07-29T04:18:40.764Z,101029.73
2018-07-29T04:21:09.259Z,101027.85
2018-07-29T04:23:37.664Z,101023.78
2018-07-29T04:26:06.401Z,101019.70
2018-07-29T04:28:34.545Z,101029.94
2018-07-29T04:31:02.682Z,101020.94
2018-07-29T04:33:31.621Z,101040.23
2018-07-29T04:36:00.261Z,101037.31
2018-07-29T04:38:28.724Z,101042.39
2018-07-29T04:40:56.882Z,101029.64
2018-07-29T04:43:25.340Z,101038.67
2018-07-29T04:45:53.494Z,101034.96
2018-07-29T04:48:21.988Z,101033.96
2018-07-29T04:50:50.505Z,101032.29
2018-07-29T04:53:19.004Z,101034.29
2018-07-29T04:55:47.491Z,101032.41
2018-07-29T04:58:15.961Z,101034.30
2018-07-29T05:00:44.437Z,101037.53
2018-07-29T05:03:12.553Z,101038.28
2018-07-29T05:05:41.045Z,101038.91
2018-07-29T05:08:09.980Z,101034.70
2018-07-29T05:10:38.169Z,101040.25
2018-07-29T05:13:06.493Z,101036.68
2018-07-29T05:15:34.646Z,101030.13
2018-07-29T05:18:03.374Z,101031.24
2018-07-29T05:20:31.533Z,101035.19
2018-07-29T05:23:00.001Z,101030.30
2018-07-29T05:25:28.860Z,101031.57
2018-07-29T05:27:57.433Z,101031.67
2018-07-29T05:30:26.154Z,101035.39
2018-07-29T05:32:54.621Z,101041.34
2018-07-29T05:35:22.749Z,101032.64
2018-07-29T05:37:50.884Z,101027.59
2018-07-29T05:40:19.205Z,101028.80
2018-07-29T05:42:47.697Z,101039.84
2018-07-29T05:45:15.867Z,101044.05
2018-07-29T05:47:44.505Z,101039.36
2018-07-29T05:50:12.645Z,101044.88
2018-07-29T05:52:41.301Z,101052.68
2018-07-29T05:55:09.784Z,101049.56
2018-07-29T05:57:38.251Z,101052.90
2018-07-29T06:00:18.710Z,101049.55
2018-07-29T06:02:47.205Z,101054.37
2018-07-29T06:05:15.689Z,101053.53
2018-07-29T06:07:44.413Z,101049.81
2018-07-29T06:10:12.553Z,101050.86
2018-07-29T06:12:41.258Z,101051.09
2018-07-29T06:15:13.520Z,101054.55
2018-07-29T06:17:41.886Z,101051.52
2018-07-29T06:20:10.888Z,101044.35
2018-07-29T06:22:39.609Z,101047.25
2018-07-29T06:25:23.943Z,101052.09
2018-07-29T06:27:52.396Z,101048.78
2018-07-29T06:30:20.572Z,101045.98
2018-07-29T06:32:49.040Z,101041.44
2018-07-29T06:35:17.409Z,101044.24
2018-07-29T06:37:45.889Z,101044.98
2018-07-29T06:40:14.345Z,101040.08
2018-07-29T06:42:42.737Z,101039.00
2018-07-29T06:45:11.038Z,101038.14
2018-07-29T06:50:32.688Z,101039.67
2018-07-29T06:55:28.432Z,101039.52
2018-07-29T06:57:56.592Z,101040.52
2018-07-29T07:00:24.742Z,101040.77
2018-07-29T07:02:53.381Z,101041.09
2018-07-29T07:05:21.509Z,101032.47
2018-07-29T07:07:49.892Z,101027.55
2018-07-29T07:10:18.086Z,101029.16
2018-07-29T07:12:47.821Z,101021.73
2018-07-29T07:15:16.529Z,101004.59
2018-07-29T07:17:44.989Z,101000.34
2018-07-29T07:20:13.241Z,100999.46
2018-07-29T07:22:41.380Z,100999.83
2018-07-29T07:25:21.861Z,100985.51
2018-07-29T07:27:50.049Z,101004.14
2018-07-29T07:30:18.774Z,100993.09
2018-07-29T07:32:47.122Z,100993.09
2018-07-29T07:35:15.682Z,100976.28
2018-07-29T07:37:44.333Z,100976.08
2018-07-29T07:40:22.872Z,100974.66
2018-07-29T07:42:51.172Z,100992.45
2018-07-29T07:45:19.844Z,101013.77
2018-07-29T07:47:48.300Z,101031.19
2018-07-29T07:50:16.512Z,101035.68
2018-07-29T07:52:44.636Z,101032.80
2018-07-29T07:55:12.757Z,101031.11
2018-07-29T07:57:41.488Z,101017.38
2018-07-29T08:00:09.920Z,101019.64
2018-07-29T08:02:38.388Z,101020.36
2018-07-29T08:05:06.525Z,101007.56
2018-07-29T08:07:35.463Z,101000.79
2018-07-29T08:10:04.130Z,101005.73
2018-07-29T08:12:32.241Z,101003.22
2018-07-29T08:15:00.677Z,100999.84
2018-07-29T08:17:29.124Z,101004.20
2018-07-29T08:19:57.548Z,101001.19
2018-07-29T08:22:26.173Z,101001.64
2018-07-29T08:24:54.696Z,100999.67
2018-07-29T08:27:23.172Z,101001.08
2018-07-29T08:29:51.326Z,100994.43
2018-07-29T08:32:19.864Z,100993.69
2018-07-29T08:34:48.013Z,100991.47
2018-07-29T08:37:16.126Z,100983.19
2018-07-29T08:39:44.562Z,100986.66
2018-07-29T08:42:13.607Z,100983.90
2018-07-29T08:44:42.117Z,100971.05
2018-07-29T08:47:10.372Z,100977.64
2018-07-29T08:49:39.044Z,100967.31
2018-07-29T08:52:07.160Z,100969.42
2018-07-29T08:54:36.052Z,100966.09
2018-07-29T08:57:04.301Z,100958.08
2018-07-29T08:59:32.677Z,100953.59
2018-07-29T09:02:00.849Z,100942.70
2018-07-29T09:04:29.482Z,100940.06
2018-07-29T09:06:58.183Z,100937.06
2018-07-29T09:09:26.633Z,100936.31
2018-07-29T09:11:54.829Z,100934.72
2018-07-29T09:14:22.933Z,100935.03
2018-07-29T09:16:54.309Z,100930.62
2018-07-29T09:19:22.489Z,100930.80
2018-07-29T09:21:51.026Z,100924.35
2018-07-29T09:24:19.508Z,100927.05
2018-07-29T09:26:47.639Z,100931.77
2018-07-29T09:29:16.137Z,100940.53
2018-07-29T09:31:44.622Z,100938.33
2018-07-29T09:34:13.836Z,100930.95
2018-07-29T09:36:42.572Z,100930.06
2018-07-29T09:39:11.022Z,100936.73
2018-07-29T09:41:39.529Z,100921.71
2018-07-29T09:44:08.015Z,100923.25
2018-07-29T09:46:36.505Z,100913.55
2018-07-29T09:49:04.681Z,100916.33
2018-07-29T09:51:33.397Z,100904.92
2018-07-29T09:54:01.753Z,100907.16
2018-07-29T09:56:29.876Z,100901.56
2018-07-29T09:58:58.232Z,100896.28
2018-07-29T10:01:27.767Z,100893.87
2018-07-29T10:03:56.434Z,100897.19
2018-07-29T10:06:24.567Z,100895.11
2018-07-29T10:08:52.728Z,100895.59
2018-07-29T10:11:20.853Z,100891.48
2018-07-29T10:13:49.028Z,100894.53
2018-07-29T10:16:17.725Z,100877.20
2018-07-29T10:18:46.169Z,100889.34
2018-07-29T10:21:14.621Z,100876.30
2018-07-29T10:23:42.989Z,100869.42
2018-07-29T10:26:11.233Z,100868.56
2018-07-29T10:28:39.748Z,100886.69
2018-07-29T10:31:08.472Z,100877.64
2018-07-29T10:33:36.974Z,100881.11
2018-07-29T10:36:05.140Z,100871.98
2018-07-29T10:38:33.709Z,100864.52
2018-07-29T10:41:01.838Z,100868.57
2018-07-29T10:43:30.335Z,100862.25
2018-07-29T10:45:58.481Z,100868.61
2018-07-29T10:48:26.600Z,100864.02
2018-07-29T10:50:58.684Z,100863.86
2018-07-29T10:53:27.220Z,100864.76
2018-07-29T10:55:55.349Z,100858.92
2018-07-29T10:58:24.323Z,100861.45
2018-07-29T11:00:52.796Z,100856.47
2018-07-29T11:03:21.268Z,100853.07
2018-07-29T11:05:49.773Z,100849.82
2018-07-29T11:08:35.201Z,100845.37
2018-07-29T11:11:03.713Z,100849.27
2018-07-29T11:13:31.931Z,100836.36
2018-07-29T11:16:00.836Z,100831.63
2018-07-29T11:18:29.470Z,100838.08
2018-07-29T11:20:58.128Z,100831.18
2018-07-29T11:23:26.688Z,100839.38
2018-07-29T11:25:55.159Z,100828.86
2018-07-29T11:28:23.706Z,100828.17
2018-07-29T11:30:53.048Z,100826.34
2018-07-29T11:33:21.636Z,100818.14
2018-07-29T11:35:50.380Z,100806.39
2018-07-29T11:38:18.871Z,100816.94
2018-07-29T11:40:47.443Z,100810.86
2018-07-29T11:43:15.768Z,100817.30
2018-07-29T11:45:45.203Z,100812.84
2018-07-29T11:48:14.255Z,100805.48
2018-07-29T11:50:42.786Z,100812.71
2018-07-29T11:53:12.034Z,100816.47
2018-07-29T11:55:41.480Z,100813.05
2018-07-29T11:58:09.683Z,100805.77
2018-07-29T12:00:38.119Z,100808.78
2018-07-29T12:03:06.677Z,100807.09
2018-07-29T12:05:34.816Z,100803.73
2018-07-29T12:08:17.895Z,100792.05
2018-07-29T12:10:46.254Z,100790.89
2018-07-29T12:13:15.120Z,100790.90
2018-07-29T12:15:43.269Z,100785.12
2018-07-29T12:18:11.854Z,100788.11
2018-07-29T12:20:40.448Z,100781.76
2018-07-29T12:23:08.980Z,100781.05
2018-07-29T12:25:37.096Z,100780.48
2018-07-29T12:28:05.704Z,100775.95
2018-07-29T12:30:34.144Z,100771.34
2018-07-29T12:33:02.447Z,100771.97
2018-07-29T12:35:31.209Z,100779.16
2018-07-29T12:37:59.862Z,100775.45
2018-07-29T12:40:28.403Z,100770.67
2018-07-29T12:42:56.496Z,100774.59
2018-07-29T12:45:24.593Z,100768.37
2018-07-29T12:47:53.024Z,100764.56
2018-07-29T12:50:21.122Z,100767.25
2018-07-29T12:52:49.644Z,100764.12
2018-07-29T12:55:17.740Z,100762.03
2018-07-29T12:57:45.824Z,100762.69
2018-07-29T13:00:15.546Z,100761.50
2018-07-29T13:02:44.123Z,100757.97
2018-07-29T13:05:12.760Z,100763.39
2018-07-29T13:07:41.076Z,100758.80
2018-07-29T13:10:09.199Z,100755.97
2018-07-29T13:12:37.642Z,100757.48
2018-07-29T13:15:06.932Z,100753.05
2018-07-29T13:17:35.710Z,100753.57
2018-07-29T13:22:43.696Z,100751.59
2018-07-29T13:25:12.380Z,100749.20
2018-07-29T13:27:40.692Z,100738.30
2018-07-29T13:30:09.880Z,100750.59
2018-07-29T13:32:38.626Z,100746.73
2018-07-29T13:35:07.484Z,100743.81
2018-07-29T13:37:36.030Z,100736.69
2018-07-29T13:40:04.900Z,100745.16
2018-07-29T13:42:32.991Z,100741.77
2018-07-29T13:45:01.618Z,100744.89
2018-07-29T13:47:30.034Z,100742.58
2018-07-29T13:49:58.680Z,100737.53
2018-07-29T13:52:26.771Z,100739.53
2018-07-29T13:54:55.395Z,100734.91
2018-07-29T13:57:23.482Z,100733.94
2018-07-29T13:59:51.920Z,100725.20
2018-07-29T14:02:20.351Z,100733.79
2018-07-29T14:04:48.771Z,100728.52
2018-07-29T14:07:16.888Z,100734.65
2018-07-29T14:09:45.303Z,100741.61
2018-07-29T14:12:13.740Z,100744.97
2018-07-29T14:14:42.064Z,100737.88
2018-07-29T14:17:10.512Z,100735.19
2018-07-29T14:19:38.605Z,100734.33
2018-07-29T14:22:07.060Z,100730.02
2018-07-29T14:24:35.389Z,100731.57
2018-07-29T14:27:04.050Z,100732.36
2018-07-29T14:29:32.576Z,100728.80
2018-07-29T14:32:01.016Z,100730.16
2018-07-29T14:34:29.107Z,100734.06
2018-07-29T14:36:57.796Z,100731.04
2018-07-29T14:39:26.424Z,100732.89
2018-07-29T14:41:54.778Z,100730.28
2018-07-29T14:44:23.063Z,100732.13
2018-07-29T14:46:51.696Z,100729.95
2018-07-29T14:49:19.803Z,100724.73
2018-07-29T14:51:48.139Z,100718.00
2018-07-29T14:54:16.663Z,100730.34
2018-07-29T14:56:45.637Z,100723.04
2018-07-29T14:59:13.787Z,100724.79
2018-07-29T15:01:42.525Z,100721.80
2018-07-29T15:04:11.214Z,100724.97
2018-07-29T15:06:39.327Z,100726.30
2018-07-29T15:09:09.460Z,100725.52
2018-07-29T15:11:37.808Z,100718.19
2018-07-29T15:14:06.232Z,100730.20
2018-07-29T15:16:34.665Z,100727.50
2018-07-29T15:19:03.336Z,100724.75
2018-07-29T15:21:31.792Z,100732.64
2018-07-29T15:24:00.284Z,100730.69
2018-07-29T15:26:28.539Z,100719.88
2018-07-29T15:28:56.676Z,100722.09
2018-07-29T15:31:25.100Z,100727.44
2018-07-29T15:33:53.291Z,100726.21
2018-07-29T15:36:21.537Z,100726.21
2018-07-29T15:38:50.152Z,100730.38
2018-07-29T15:41:18.588Z,100722.55
2018-07-29T15:43:46.662Z,100728.58
2018-07-29T15:46:15.288Z,100726.58
2018-07-29T15:48:43.708Z,100730.34
2018-07-29T15:51:11.992Z,100728.03
2018-07-29T15:53:40.428Z,100729.98
2018-07-29T15:56:08.519Z,100729.26
2018-07-29T15:58:36.636Z,100734.09
2018-07-29T16:01:04.803Z,100737.70
2018-07-29T16:03:33.232Z,100732.65
2018-07-29T16:06:01.565Z,100735.28
2018-07-29T16:08:30.019Z,100735.70
2018-07-29T16:10:58.602Z,100736.12
2018-07-29T16:13:26.832Z,100732.87
2018-07-29T16:15:55.300Z,100739.92
2018-07-29T16:18:23.732Z,100738.13
2018-07-29T16:20:52.016Z,100740.73
2018-07-29T16:23:20.724Z,100735.23
2018-07-29T16:25:49.176Z,100740.17
2018-07-29T16:28:17.832Z,100734.98
2018-07-29T16:30:46.312Z,100736.62
2018-07-29T16:33:15.135Z,100737.70
2018-07-29T16:35:43.212Z,100743.56
2018-07-29T16:38:11.305Z,100743.81
2018-07-29T16:40:39.972Z,100741.81
2018-07-29T16:43:08.072Z,100739.87
2018-07-29T16:45:36.584Z,100743.26
2018-07-29T16:48:04.944Z,100741.31
2018-07-29T16:50:33.044Z,100740.73
2018-07-29T16:53:01.428Z,100740.06
2018-07-29T16:55:29.865Z,100744.28
2018-07-29T16:57:58.308Z,100745.37
2018-07-29T17:00:26.733Z,100741.09
2018-07-29T17:02:55.202Z,100747.73
2018-07-29T17:05:23.616Z,100737.30
2018-07-29T17:07:52.292Z,100739.05
2018-07-29T17:10:20.661Z,100743.20
2018-07-29T17:12:49.492Z,100743.53
2018-07-29T17:15:18.154Z,100743.17
2018-07-29T17:17:46.661Z,100738.70
2018-07-29T17:20:15.015Z,100732.53
2018-07-29T17:22:43.621Z,100739.53
2018-07-29T17:25:12.313Z,100728.80
2018-07-29T17:27:40.460Z,100734.41
2018-07-29T17:30:08.697Z,100731.41
2018-07-29T17:32:37.640Z,100734.19
2018-07-29T17:35:06.123Z,100732.19
2018-07-29T17:37:34.744Z,100732.44
2018-07-29T17:40:03.408Z,100735.73
2018-07-29T17:42:31.684Z,100744.42
2018-07-29T17:45:00.116Z,100736.72
2018-07-29T17:47:28.408Z,100745.60
2018-07-29T17:50:00.086Z,100736.20
2018-07-29T17:52:28.180Z,100735.27
2018-07-29T17:54:56.639Z,100737.93
2018-07-29T17:57:24.730Z,100737.77
2018-07-29T17:59:52.843Z,100742.49
2018-07-29T18:02:21.524Z,100737.77
2018-07-29T18:04:50.211Z,100738.39
2018-07-29T18:07:18.620Z,100743.38
2018-07-29T18:09:47.063Z,100744.55
2018-07-29T18:12:15.480Z,100744.25
2018-07-29T18:14:43.960Z,100737.62
2018-07-29T18:17:12.308Z,100735.16
2018-07-29T18:19:40.969Z,100737.06
2018-07-29T18:22:09.387Z,100744.55
2018-07-29T18:24:38.064Z,100740.09
2018-07-29T18:27:06.488Z,100742.80
2018-07-29T18:29:35.142Z,100749.95
2018-07-29T18:32:03.580Z,100751.28
2018-07-29T18:34:32.230Z,100746.81
2018-07-29T18:37:00.644Z,100754.83
2018-07-29T18:39:29.292Z,100756.22
2018-07-29T18:41:57.916Z,100752.23
2018-07-29T18:44:26.140Z,100754.09
2018-07-29T18:46:54.556Z,100750.42
2018-07-29T18:51:57.056Z,100746.55
2018-07-29T18:54:25.156Z,100744.77
2018-07-29T18:56:53.564Z,100749.88
2018-07-29T18:59:21.992Z,100745.52
2018-07-29T19:01:50.403Z,100744.98
2018-07-29T19:04:18.861Z,100747.00
2018-07-29T19:06:47.452Z,100743.78
2018-07-29T19:09:15.596Z,100756.96
2018-07-29T19:11:44.212Z,100754.58
2018-07-29T19:14:12.480Z,100754.61
2018-07-29T19:16:40.928Z,100768.57
2018-07-29T19:19:09.824Z,100767.25
2018-07-29T19:21:38.148Z,100763.48
2018-07-29T19:24:06.676Z,100769.78
2018-07-29T19:26:35.095Z,100772.03
2018-07-29T19:29:03.440Z,100776.25
2018-07-29T19:31:32.114Z,100780.16
2018-07-29T19:34:00.572Z,100781.31
2018-07-29T19:36:28.983Z,100779.67
2018-07-29T19:38:57.456Z,100781.98
2018-07-29T19:41:26.138Z,100782.94
2018-07-29T19:43:54.220Z,100784.77
2018-07-29T19:46:22.565Z,100786.63
2018-07-29T19:48:50.657Z,100791.77
2018-07-29T19:51:19.083Z,100793.52
2018-07-29T19:53:51.610Z,100788.78
2018-07-29T19:56:20.042Z,100789.38
2018-07-29T19:58:48.691Z,100788.59
2018-07-29T20:01:17.148Z,100793.77
2018-07-29T20:03:45.244Z,100794.28
2018-07-29T20:06:14.272Z,100795.81
2018-07-29T20:08:42.416Z,100801.53
2018-07-29T20:11:10.524Z,100807.72
2018-07-29T20:13:39.068Z,100802.85
2018-07-29T20:16:07.747Z,100803.20
2018-07-29T20:18:36.292Z,100809.62
2018-07-29T20:21:04.913Z,100801.11
2018-07-29T20:23:33.540Z,100800.80
2018-07-29T20:26:01.693Z,100805.09
2018-07-29T20:28:30.598Z,100800.85
2018-07-29T20:31:00.204Z,100801.05
2018-07-29T20:33:28.604Z,100796.58
2018-07-29T20:35:57.055Z,100799.06
2018-07-29T20:38:25.144Z,100801.83
2018-07-29T20:40:53.815Z,100805.11
2018-07-29T20:43:22.464Z,100799.88
2018-07-29T20:45:51.376Z,100794.17
2018-07-29T20:48:19.789Z,100788.02
2018-07-29T20:50:48.303Z,100792.38
2018-07-29T20:53:16.872Z,100794.69
2018-07-29T20:55:45.568Z,100800.22
2018-07-29T20:58:13.984Z,100795.58
2018-07-29T21:00:42.424Z,100796.94
2018-07-29T21:03:11.287Z,100796.21
2018-07-29T21:05:39.988Z,100804.33
2018-07-29T21:08:08.408Z,100801.16
2018-07-29T21:10:36.855Z,100798.16
2018-07-29T21:13:05.289Z,100800.91
2018-07-29T21:15:33.935Z,100800.22
2018-07-29T21:18:02.632Z,100806.30
2018-07-29T21:20:31.044Z,100809.28
2018-07-29T21:22:59.728Z,100809.20
2018-07-29T21:25:28.160Z,100811.73
2018-07-29T21:27:56.596Z,100812.97
2018-07-29T21:30:25.249Z,100811.59
2018-07-29T21:32:53.769Z,100814.41
2018-07-29T21:35:21.844Z,100812.08
2018-07-29T21:37:50.278Z,100817.11
2018-07-29T21:40:18.884Z,100817.16
2018-07-29T21:42:47.022Z,100814.27
2018-07-29T21:45:15.656Z,100812.92
2018-07-29T21:47:44.080Z,100824.49
2018-07-29T21:50:12.544Z,100831.09
2018-07-29T21:52:40.974Z,100830.44
2018-07-29T21:55:09.419Z,100834.32
2018-07-29T21:57:38.121Z,100841.52
2018-07-29T22:00:07.800Z,100832.92
2018-07-29T22:02:41.884Z,100829.95
2018-07-29T22:05:10.162Z,100834.95
2018-07-29T22:07:38.796Z,100838.03
2018-07-29T22:10:07.256Z,100841.63
2018-07-29T22:12:35.712Z,100841.52
2018-07-29T22:15:04.137Z,100839.71
2018-07-29T22:17:32.576Z,100840.13
2018-07-29T22:20:01.008Z,100839.37
2018-07-29T22:22:29.336Z,100837.45
2018-07-29T22:25:03.104Z,100832.23
2018-07-29T22:27:31.536Z,100836.99
2018-07-29T22:30:05.436Z,100832.32
2018-07-29T22:32:33.863Z,100829.97
2018-07-29T22:35:02.313Z,100829.53
2018-07-29T22:37:30.744Z,100833.45
2018-07-29T22:39:59.233Z,100832.25
2018-07-29T22:42:27.659Z,100829.00
2018-07-29T22:44:56.076Z,100833.41
2018-07-29T22:47:24.522Z,100830.95
2018-07-29T22:49:53.167Z,100831.56
2018-07-29T22:52:21.771Z,100832.17
2018-07-29T22:54:49.916Z,100830.17
2018-07-29T22:57:18.508Z,100833.33
2018-07-29T22:59:46.949Z,100841.05
2018-07-29T23:02:15.572Z,100838.62
2018-07-29T23:04:43.661Z,100835.53
2018-07-29T23:07:12.284Z,100840.14
2018-07-29T23:09:50.600Z,100839.38
2018-07-29T23:12:19.025Z,100835.47
2018-07-29T23:14:47.451Z,100838.44
2018-07-29T23:17:15.593Z,100843.50
2018-07-29T23:19:43.871Z,100840.20
2018-07-29T23:22:12.536Z,100846.44
2018-07-29T23:24:40.984Z,100845.60
2018-07-29T23:27:09.416Z,100842.31
2018-07-29T23:29:37.860Z,100841.58
2018-07-29T23:32:06.235Z,100840.53
2018-07-29T23:34:34.328Z,100845.17
2018-07-29T23:37:02.825Z,100841.91
2018-07-29T23:39:31.473Z,100844.27
2018-07-29T23:41:59.908Z,100843.33
2018-07-29T23:44:28.160Z,100848.30
2018-07-29T23:46:56.840Z,100839.82
2018-07-29T23:49:24.985Z,100841.85
2018-07-29T23:51:53.616Z,100842.62
2018-07-29T23:54:22.264Z,100847.41
2018-07-29T23:56:51.013Z,100847.19
2018-07-29T23:59:20.412Z,100843.92
